createdAt,value
2018-06-20T00:00:33.352Z,99734.82
2018-06-20T00:03:01.854Z,99734.45
2018-06-20T00:05:30.336Z,99735.05
2018-06-20T00:07:58.712Z,99732.95
2018-06-20T00:10:27.433Z,99730.91
2018-06-20T00:12:55.754Z,99724.14
2018-06-20T00:15:24.361Z,99724.45
2018-06-20T00:17:52.440Z,99721.08
2018-06-20T00:20:21.027Z,99723.38
2018-06-20T00:22:49.433Z,99721.83
2018-06-20T00:25:17.981Z,99717.40
2018-06-20T00:27:47.393Z,99720.98
2018-06-20T00:30:15.873Z,99715.83
2018-06-20T00:32:44.254Z,99717.23
2018-06-20T00:35:12.722Z,99716.89
2018-06-20T00:37:41.131Z,99718.35
2018-06-20T00:40:09.592Z,99713.20
2018-06-20T00:42:38.902Z,99713.13
2018-06-20T00:45:07.538Z,99707.34
2018-06-20T00:47:35.947Z,99708.84
2018-06-20T00:50:04.541Z,99714.70
2018-06-20T00:52:33.156Z,99710.78
2018-06-20T00:55:01.501Z,99711.47
2018-06-20T00:57:30.111Z,99713.63
2018-06-20T00:59:58.490Z,99705.89
2018-06-20T01:02:26.806Z,99716.03
2018-06-20T01:04:55.331Z,99713.77
2018-06-20T01:07:24.617Z,99717.36
2018-06-20T01:09:53.110Z,99716.69
2018-06-20T01:12:21.485Z,99714.22
2018-06-20T01:14:50.076Z,99716.45
2018-06-20T01:17:18.542Z,99718.60
2018-06-20T01:19:47.146Z,99713.36
2018-06-20T01:22:15.617Z,99717.47
2018-06-20T01:24:44.097Z,99709.59
2018-06-20T01:27:12.684Z,99711.78
2018-06-20T01:29:41.061Z,99715.59
2018-06-20T01:32:09.547Z,99713.73
2018-06-20T01:34:38.035Z,99714.98
2018-06-20T01:37:06.492Z,99718.92
2018-06-20T01:39:34.782Z,99714.70
2018-06-20T01:42:03.298Z,99720.59
2018-06-20T01:44:31.875Z,99720.75
2018-06-20T01:47:00.459Z,99714.55
2018-06-20T01:49:28.801Z,99717.63
2018-06-20T01:51:57.389Z,99713.81
2018-06-20T01:54:25.781Z,99720.09
2018-06-20T01:56:54.353Z,99719.05
2018-06-20T01:59:22.742Z,99713.45
2018-06-20T02:01:51.121Z,99722.94
2018-06-20T02:04:19.535Z,99726.30
2018-06-20T02:06:47.850Z,99729.31
2018-06-20T02:09:16.246Z,99731.25
2018-06-20T02:11:44.432Z,99731.45
2018-06-20T02:14:12.914Z,99734.63
2018-06-20T02:16:41.495Z,99734.02
2018-06-20T02:19:09.872Z,99739.77
2018-06-20T02:21:38.453Z,99742.81
2018-06-20T02:24:06.738Z,99751.34
2018-06-20T02:26:35.237Z,99754.06
2018-06-20T02:29:03.699Z,99752.97
2018-06-20T02:31:32.281Z,99746.14
2018-06-20T02:34:00.791Z,99752.30
2018-06-20T02:36:32.552Z,99751.23
2018-06-20T02:39:02.208Z,99760.97
2018-06-20T02:41:30.817Z,99760.40
2018-06-20T02:43:59.288Z,99766.16
2018-06-20T02:46:27.682Z,99770.02
2018-06-20T02:48:56.443Z,99772.37
2018-06-20T02:51:24.950Z,99774.91
2018-06-20T02:53:53.420Z,99772.19
2018-06-20T02:56:21.909Z,99774.79
2018-06-20T02:58:50.270Z,99774.91
2018-06-20T03:01:18.669Z,99778.70
2018-06-20T03:03:47.072Z,99786.53
2018-06-20T03:06:15.532Z,99783.95
2018-06-20T03:08:46.659Z,99779.30
2018-06-20T03:11:15.156Z,99784.98
2018-06-20T03:13:44.355Z,99793.42
2018-06-20T03:16:12.844Z,99787.84
2018-06-20T03:18:41.217Z,99794.06
2018-06-20T03:21:09.693Z,99795.14
2018-06-20T03:23:38.057Z,99797.02
2018-06-20T03:26:06.446Z,99797.94
2018-06-20T03:28:34.831Z,99805.89
2018-06-20T03:31:03.304Z,99814.05
2018-06-20T03:33:31.826Z,99816.98
2018-06-20T03:36:00.177Z,99815.11
2018-06-20T03:38:28.549Z,99821.80
2018-06-20T03:40:56.925Z,99827.77
2018-06-20T03:43:25.270Z,99828.39
2018-06-20T03:45:53.573Z,99829.77
2018-06-20T03:48:22.073Z,99832.41
2018-06-20T03:50:50.442Z,99833.70
2018-06-20T03:53:18.953Z,99842.61
2018-06-20T03:55:47.418Z,99848.77
2018-06-20T03:58:15.994Z,99851.94
2018-06-20T04:00:44.273Z,99858.27
2018-06-20T04:03:12.655Z,99853.12
2018-06-20T04:05:41.177Z,99853.30
2018-06-20T04:08:09.641Z,99853.58
2018-06-20T04:10:38.004Z,99853.95
2018-06-20T04:13:06.482Z,99859.68
2018-06-20T04:15:34.835Z,99864.09
2018-06-20T04:18:03.341Z,99867.19
2018-06-20T04:20:31.805Z,99873.30
2018-06-20T04:23:00.200Z,99875.05
2018-06-20T04:25:28.598Z,99877.59
2018-06-20T04:27:57.112Z,99874.27
2018-06-20T04:30:25.441Z,99876.53
2018-06-20T04:32:53.713Z,99883.66
2018-06-20T04:35:22.755Z,99886.69
2018-06-20T04:37:51.277Z,99882.06
2018-06-20T04:40:19.669Z,99882.95
2018-06-20T04:42:48.253Z,99885.14
2018-06-20T04:45:16.873Z,99887.42
2018-06-20T04:47:45.322Z,99890.70
2018-06-20T04:50:13.801Z,99887.53
2018-06-20T04:52:42.501Z,99895.30
2018-06-20T04:55:10.842Z,99895.80
2018-06-20T04:57:39.350Z,99897.74
2018-06-20T05:00:08.910Z,99902.00
2018-06-20T05:02:37.322Z,99902.57
2018-06-20T05:05:05.948Z,99905.98
2018-06-20T05:07:35.389Z,99909.55
2018-06-20T05:10:03.701Z,99906.45
2018-06-20T05:12:32.305Z,99905.91
2018-06-20T05:15:01.282Z,99905.88
2018-06-20T05:17:29.848Z,99906.50
2018-06-20T05:19:58.141Z,99910.89
2018-06-20T05:22:26.629Z,99907.19
2018-06-20T05:24:55.034Z,99908.30
2018-06-20T05:27:23.692Z,99917.98
2018-06-20T05:29:52.175Z,99917.62
2018-06-20T05:32:20.654Z,99914.70
2018-06-20T05:34:49.126Z,99912.74
2018-06-20T05:37:17.719Z,99909.76
2018-06-20T05:39:46.302Z,99914.47
2018-06-20T05:42:15.015Z,99920.23
2018-06-20T05:44:43.665Z,99911.58
2018-06-20T05:47:12.162Z,99915.14
2018-06-20T05:49:40.630Z,99917.11
2018-06-20T05:52:09.121Z,99917.81
2018-06-20T05:54:37.481Z,99912.50
2018-06-20T05:57:05.873Z,99917.63
2018-06-20T05:59:34.284Z,99917.05
2018-06-20T06:02:02.840Z,99920.60
2018-06-20T06:04:31.635Z,99915.59
2018-06-20T06:07:00.007Z,99915.19
2018-06-20T06:09:28.572Z,99915.08
2018-06-20T06:11:57.090Z,99911.00
2018-06-20T06:14:25.448Z,99914.98
2018-06-20T06:16:53.859Z,99917.62
2018-06-20T06:19:22.193Z,99908.87
2018-06-20T06:21:50.581Z,99913.09
2018-06-20T06:24:19.095Z,99916.31
2018-06-20T06:26:47.550Z,99915.04
2018-06-20T06:29:16.343Z,99923.31
2018-06-20T06:31:44.716Z,99916.09
2018-06-20T06:34:13.286Z,99915.66
2018-06-20T06:36:42.247Z,99915.52
2018-06-20T06:39:11.662Z,99911.13
2018-06-20T06:41:40.189Z,99912.66
2018-06-20T06:44:08.693Z,99904.44
2018-06-20T06:46:37.136Z,99911.41
2018-06-20T06:49:06.068Z,99912.58
2018-06-20T06:51:34.708Z,99909.56
2018-06-20T06:54:03.096Z,99914.28
2018-06-20T06:56:31.471Z,99906.90
2018-06-20T06:58:59.970Z,99912.46
2018-06-20T07:01:28.338Z,99917.84
2018-06-20T07:03:56.823Z,99913.30
2018-06-20T07:06:25.195Z,99920.55
2018-06-20T07:08:53.788Z,99907.63
2018-06-20T07:11:22.269Z,99920.73
2018-06-20T07:13:50.538Z,99911.67
2018-06-20T07:16:19.023Z,99908.98
2018-06-20T07:18:47.430Z,99918.08
2018-06-20T07:21:15.869Z,99919.59
2018-06-20T07:23:44.280Z,99917.08
2018-06-20T07:26:12.861Z,99918.91
2018-06-20T07:28:41.386Z,99921.79
2018-06-20T07:31:09.913Z,99912.50
2018-06-20T07:33:38.507Z,99916.70
2018-06-20T07:36:07.974Z,99921.05
2018-06-20T07:38:36.427Z,99915.54
2018-06-20T07:41:04.857Z,99922.45
2018-06-20T07:43:33.358Z,99924.45
2018-06-20T07:46:02.782Z,99920.75
2018-06-20T07:48:31.124Z,99916.68
2018-06-20T07:51:00.033Z,99930.02
2018-06-20T07:53:28.397Z,99926.80
2018-06-20T07:55:56.874Z,99918.20
2018-06-20T07:58:30.624Z,99923.23
2018-06-20T08:01:04.640Z,99920.33
2018-06-20T08:03:38.477Z,99921.53
2018-06-20T08:06:12.392Z,99926.67
2018-06-20T08:08:46.176Z,99919.95
2018-06-20T08:11:20.829Z,99917.09
2018-06-20T08:13:54.878Z,99922.46
2018-06-20T08:16:28.905Z,99917.04
2018-06-20T08:19:02.763Z,99923.09
2018-06-20T08:21:31.267Z,99919.23
2018-06-20T08:23:59.620Z,99925.42
2018-06-20T08:26:28.328Z,99925.77
2018-06-20T08:28:56.908Z,99907.53
2018-06-20T08:31:25.168Z,99917.77
2018-06-20T08:33:53.877Z,99909.20
2018-06-20T08:36:22.380Z,99916.61
2018-06-20T08:38:50.829Z,99919.78
2018-06-20T08:41:19.422Z,99909.27
2018-06-20T08:43:47.875Z,99909.41
2018-06-20T08:46:16.517Z,99904.92
2018-06-20T08:48:44.949Z,99908.94
2018-06-20T08:51:13.241Z,99900.45
2018-06-20T08:53:41.830Z,99904.50
2018-06-20T08:56:10.101Z,99903.11
2018-06-20T08:58:38.688Z,99909.44
2018-06-20T09:01:07.217Z,99908.03
2018-06-20T09:03:35.645Z,99902.63
2018-06-20T09:06:09.391Z,99897.62
2018-06-20T09:08:43.066Z,99890.98
2018-06-20T09:11:16.928Z,99892.30
2018-06-20T09:13:50.768Z,99896.02
2018-06-20T09:17:23.594Z,99891.81
2018-06-20T09:19:53.126Z,99902.19
2018-06-20T09:22:22.380Z,99891.82
2018-06-20T09:24:50.653Z,99898.93
2018-06-20T09:27:19.286Z,99896.52
2018-06-20T09:29:47.814Z,99892.98
2018-06-20T09:32:16.666Z,99894.17
2018-06-20T09:34:45.646Z,99896.47
2018-06-20T09:37:13.980Z,99890.56
2018-06-20T09:39:42.538Z,99881.59
2018-06-20T09:42:10.957Z,99889.25
2018-06-20T09:44:39.491Z,99888.89
2018-06-20T09:47:07.909Z,99881.42
2018-06-20T09:49:36.075Z,99884.19
2018-06-20T09:52:04.568Z,99881.82
2018-06-20T09:54:34.055Z,99880.58
2018-06-20T09:57:02.532Z,99869.72
2018-06-20T09:59:36.245Z,99875.89
2018-06-20T10:02:10.068Z,99871.42
2018-06-20T10:04:43.911Z,99871.21
2018-06-20T10:07:17.795Z,99866.26
2018-06-20T10:09:51.985Z,99873.51
2018-06-20T10:13:24.891Z,99867.88
2018-06-20T10:15:52.953Z,99863.72
2018-06-20T10:18:21.590Z,99861.98
2018-06-20T10:20:49.546Z,99866.88
2018-06-20T10:23:17.624Z,99854.06
2018-06-20T10:25:45.857Z,99858.77
2018-06-20T10:28:14.416Z,99851.16
2018-06-20T10:30:42.720Z,99857.90
2018-06-20T10:33:11.073Z,99854.85
2018-06-20T10:35:40.076Z,99847.66
2018-06-20T10:38:08.557Z,99844.78
2018-06-20T10:40:37.079Z,99847.50
2018-06-20T10:43:05.528Z,99849.11
2018-06-20T10:45:39.384Z,99845.58
2018-06-20T10:48:16.160Z,99849.24
2018-06-20T10:50:44.925Z,99843.75
2018-06-20T10:53:13.381Z,99835.27
2018-06-20T10:55:42.169Z,99840.56
2018-06-20T10:58:16.102Z,99838.74
2018-06-20T11:00:50.166Z,99834.80
2018-06-20T11:03:24.086Z,99826.13
2018-06-20T11:05:57.963Z,99824.58
2018-06-20T11:08:31.769Z,99826.77
2018-06-20T11:11:05.525Z,99822.91
2018-06-20T11:13:34.122Z,99817.67
2018-06-20T11:16:02.590Z,99816.92
2018-06-20T11:18:32.361Z,99818.92
2018-06-20T11:21:00.777Z,99824.47
2018-06-20T11:23:30.359Z,99814.22
2018-06-20T11:25:59.509Z,99817.70
2018-06-20T11:28:28.577Z,99814.68
2018-06-20T11:30:56.952Z,99816.79
2018-06-20T11:33:25.443Z,99815.67
2018-06-20T11:35:53.916Z,99807.76
2018-06-20T11:38:22.914Z,99805.00
2018-06-20T11:40:51.405Z,99800.02
2018-06-20T11:43:19.672Z,99807.95
2018-06-20T11:45:53.412Z,99797.70
2018-06-20T11:48:22.113Z,99805.02
2018-06-20T11:50:50.351Z,99804.61
2018-06-20T11:53:18.997Z,99814.89
2018-06-20T11:55:47.641Z,99807.69
2018-06-20T11:58:21.616Z,99802.03
2018-06-20T12:00:56.553Z,99795.91
2018-06-20T12:03:30.426Z,99795.45
2018-06-20T12:06:06.209Z,99791.56
2018-06-20T12:08:40.488Z,99784.36
2018-06-20T12:11:14.778Z,99775.47
2018-06-20T12:13:48.570Z,99776.77
2018-06-20T12:16:19.094Z,99779.15
2018-06-20T12:18:53.124Z,99770.42
2018-06-20T12:21:26.995Z,99769.27
2018-06-20T12:24:00.602Z,99773.92
2018-06-20T12:26:40.536Z,99785.84
2018-06-20T12:29:14.147Z,99785.27
2018-06-20T12:31:48.002Z,99777.97
2018-06-20T12:34:21.872Z,99762.89
2018-06-20T12:36:55.668Z,99762.23
2018-06-20T12:39:39.378Z,99758.89
2018-06-20T12:42:13.603Z,99761.72
2018-06-20T12:44:49.928Z,99764.17
2018-06-20T12:47:23.445Z,99761.08
2018-06-20T12:50:09.706Z,99757.30
2018-06-20T12:52:38.295Z,99755.46
2018-06-20T12:55:06.369Z,99751.73
2018-06-20T12:57:34.294Z,99751.14
2018-06-20T13:00:02.301Z,99747.97
2018-06-20T13:02:30.858Z,99748.77
2018-06-20T13:04:59.352Z,99751.48
2018-06-20T13:07:27.830Z,99753.19
2018-06-20T13:09:56.453Z,99739.92
2018-06-20T13:12:25.021Z,99743.39
2018-06-20T13:14:53.558Z,99740.63
2018-06-20T13:17:21.954Z,99741.14
2018-06-20T13:19:50.474Z,99745.51
2018-06-20T13:22:19.034Z,99734.83
2018-06-20T13:24:48.346Z,99733.98
2018-06-20T13:27:22.298Z,99746.56
2018-06-20T13:29:55.993Z,99736.11
2018-06-20T13:32:29.913Z,99742.25
2018-06-20T13:35:04.283Z,99737.67
2018-06-20T13:37:38.291Z,99733.91
2018-06-20T13:40:12.213Z,99736.61
2018-06-20T13:42:45.815Z,99727.59
2018-06-20T13:45:19.598Z,99722.77
2018-06-20T13:47:53.407Z,99713.11
2018-06-20T13:50:21.807Z,99708.66
2018-06-20T13:52:50.330Z,99715.66
2018-06-20T13:55:18.646Z,99707.33
2018-06-20T13:57:47.302Z,99714.33
2018-06-20T14:00:17.797Z,99708.05
2018-06-20T14:02:46.165Z,99714.78
2018-06-20T14:05:15.748Z,99713.95
2018-06-20T14:07:44.185Z,99709.52
2018-06-20T14:10:15.674Z,99705.06
2018-06-20T14:12:44.981Z,99702.98
2018-06-20T14:15:13.614Z,99707.44
2018-06-20T14:17:42.042Z,99701.45
2018-06-20T14:20:16.078Z,99696.19
2018-06-20T14:22:44.582Z,99697.81
2018-06-20T14:25:13.116Z,99689.44
2018-06-20T14:27:41.704Z,99696.72
2018-06-20T14:30:10.165Z,99693.59
2018-06-20T14:32:43.870Z,99694.36
2018-06-20T14:35:17.838Z,99692.30
2018-06-20T14:37:51.554Z,99688.60
2018-06-20T14:40:25.405Z,99681.16
2018-06-20T14:43:02.157Z,99688.30
2018-06-20T14:45:35.917Z,99686.28
2018-06-20T14:48:07.533Z,99684.12
2018-06-20T14:50:36.258Z,99686.41
2018-06-20T14:53:05.358Z,99688.94
2018-06-20T14:55:34.072Z,99687.67
2018-06-20T14:58:02.426Z,99689.68
2018-06-20T15:00:31.110Z,99685.55
2018-06-20T15:02:59.773Z,99686.56
2018-06-20T15:05:28.042Z,99684.21
2018-06-20T15:07:56.422Z,99687.20
2018-06-20T15:10:24.802Z,99689.38
2018-06-20T15:12:53.596Z,99688.47
2018-06-20T15:15:22.075Z,99684.10
2018-06-20T15:17:50.507Z,99685.02
2018-06-20T15:20:19.068Z,99680.14
2018-06-20T15:22:48.162Z,99681.92
2018-06-20T15:25:20.894Z,99674.64
2018-06-20T15:27:54.737Z,99680.51
2018-06-20T15:30:28.407Z,99679.59
2018-06-20T15:33:01.925Z,99679.28
2018-06-20T15:35:35.712Z,99675.32
2018-06-20T15:38:09.389Z,99678.98
2018-06-20T15:40:53.507Z,99682.75
2018-06-20T15:43:29.229Z,99693.03
2018-06-20T15:46:04.014Z,99695.95
2018-06-20T15:48:51.480Z,99695.11
2018-06-20T15:51:23.553Z,99690.31
2018-06-20T15:53:55.459Z,99696.97
2018-06-20T15:56:25.790Z,99693.60
2018-06-20T15:58:54.099Z,99682.48
2018-06-20T16:01:22.532Z,99687.20
2018-06-20T16:03:50.985Z,99683.47
2018-06-20T16:06:19.602Z,99685.84
2018-06-20T16:08:53.601Z,99684.48
2018-06-20T16:11:22.066Z,99677.59
2018-06-20T16:13:50.521Z,99677.78
2018-06-20T16:16:18.771Z,99683.84
2018-06-20T16:18:52.710Z,99682.17
2018-06-20T16:21:26.420Z,99679.45
2018-06-20T16:24:00.069Z,99679.77
2018-06-20T16:26:33.890Z,99688.94
2018-06-20T16:29:07.540Z,99689.16
2018-06-20T16:31:35.776Z,99701.13
2018-06-20T16:34:04.299Z,99714.16
2018-06-20T16:36:32.933Z,99719.98
2018-06-20T16:39:02.081Z,99723.61
2018-06-20T16:41:31.686Z,99711.77
2018-06-20T16:43:59.965Z,99715.98
2018-06-20T16:46:28.350Z,99713.13
2018-06-20T16:48:57.078Z,99722.34
2018-06-20T16:51:25.548Z,99725.48
2018-06-20T16:53:54.037Z,99722.17
2018-06-20T16:56:22.578Z,99727.52
2018-06-20T16:58:50.899Z,99732.09
2018-06-20T17:01:24.675Z,99721.94
2018-06-20T17:03:53.245Z,99726.98
2018-06-20T17:06:21.855Z,99724.78
2018-06-20T17:08:50.224Z,99724.43
2018-06-20T17:11:18.574Z,99719.53
2018-06-20T17:13:52.337Z,99725.84
2018-06-20T17:16:26.275Z,99717.53
2018-06-20T17:19:00.004Z,99715.61
2018-06-20T17:21:33.927Z,99714.18
2018-06-20T17:24:07.761Z,99713.94
2018-06-20T17:26:36.433Z,99717.98
2018-06-20T17:29:04.797Z,99720.33
2018-06-20T17:31:33.273Z,99724.95
2018-06-20T17:34:01.809Z,99725.89
2018-06-20T17:36:30.136Z,99727.83
2018-06-20T17:38:58.765Z,99728.78
2018-06-20T17:41:27.341Z,99737.73
2018-06-20T17:43:55.722Z,99739.12
2018-06-20T17:46:24.431Z,99739.28
2018-06-20T17:48:53.155Z,99740.59
2018-06-20T17:51:21.774Z,99746.94
2018-06-20T17:53:51.895Z,99738.08
2018-06-20T17:56:20.822Z,99742.93
2018-06-20T17:58:49.665Z,99750.18
2018-06-20T18:01:18.293Z,99756.39
2018-06-20T18:03:48.498Z,99752.00
2018-06-20T18:06:22.366Z,99758.44
2018-06-20T18:08:56.236Z,99757.74
2018-06-20T18:11:29.772Z,99765.22
2018-06-20T18:14:03.819Z,99770.95
2018-06-20T18:16:38.221Z,99768.64
2018-06-20T18:19:06.926Z,99770.05
2018-06-20T18:21:39.324Z,99766.68
2018-06-20T18:24:11.867Z,99775.11
2018-06-20T18:26:41.745Z,99780.14
2018-06-20T18:29:10.940Z,99790.63
2018-06-20T18:31:39.842Z,99796.25
2018-06-20T18:34:08.322Z,99794.28
2018-06-20T18:36:37.011Z,99797.66
2018-06-20T18:39:07.441Z,99795.48
2018-06-20T18:41:35.754Z,99797.32
2018-06-20T18:44:06.200Z,99798.52
2018-06-20T18:46:34.935Z,99801.87
2018-06-20T18:49:03.990Z,99811.30
2018-06-20T18:51:32.326Z,99816.17
2018-06-20T18:54:01.658Z,99819.23
2018-06-20T18:56:30.859Z,99821.08
2018-06-20T18:59:04.996Z,99824.11
2018-06-20T19:01:38.969Z,99827.13
2018-06-20T19:04:18.390Z,99835.89
2018-06-20T19:06:52.401Z,99838.25
2018-06-20T19:09:23.796Z,99833.19
2018-06-20T19:11:52.229Z,99843.13
2018-06-20T19:14:20.889Z,99838.23
2018-06-20T19:16:50.573Z,99842.61
2018-06-20T19:19:20.693Z,99849.02
2018-06-20T19:21:49.800Z,99855.91
2018-06-20T19:24:19.057Z,99861.25
2018-06-20T19:26:48.053Z,99860.26
2018-06-20T19:29:16.449Z,99862.95
2018-06-20T19:31:45.373Z,99864.65
2018-06-20T19:34:15.202Z,99867.39
2018-06-20T19:36:44.329Z,99868.06
2018-06-20T19:39:19.234Z,99874.13
2018-06-20T19:41:50.084Z,99876.49
2018-06-20T19:44:23.926Z,99875.42
2018-06-20T19:46:52.877Z,99875.52
2018-06-20T19:49:21.226Z,99873.98
2018-06-20T19:51:49.591Z,99876.30
2018-06-20T19:54:18.074Z,99874.19
2018-06-20T19:56:46.337Z,99870.52
2018-06-20T19:59:14.682Z,99871.59
2018-06-20T20:01:44.952Z,99870.23
2018-06-20T20:04:13.418Z,99867.49
2018-06-20T20:06:41.926Z,99863.97
2018-06-20T20:09:10.410Z,99873.42
2018-06-20T20:11:39.365Z,99869.03
2018-06-20T20:14:08.880Z,99861.33
2018-06-20T20:16:37.562Z,99866.84
2018-06-20T20:19:05.885Z,99874.16
2018-06-20T20:21:34.781Z,99877.38
2018-06-20T20:24:03.346Z,99878.35
2018-06-20T20:26:31.743Z,99870.91
2018-06-20T20:29:00.039Z,99875.41
2018-06-20T20:31:28.484Z,99879.95
2018-06-20T20:33:57.015Z,99874.17
2018-06-20T20:36:25.459Z,99874.33
2018-06-20T20:38:53.731Z,99876.09
2018-06-20T20:41:22.119Z,99875.72
2018-06-20T20:43:50.389Z,99878.37
2018-06-20T20:46:18.795Z,99878.11
2018-06-20T20:48:47.154Z,99878.03
2018-06-20T20:51:15.620Z,99875.34
2018-06-20T20:53:43.912Z,99876.32
2018-06-20T20:56:15.370Z,99871.27
2018-06-20T20:58:43.730Z,99874.25
2018-06-20T21:01:12.137Z,99866.44
2018-06-20T21:03:40.494Z,99868.85
2018-06-20T21:06:09.041Z,99868.73
2018-06-20T21:08:37.484Z,99871.81
2018-06-20T21:11:05.831Z,99862.09
2018-06-20T21:13:34.221Z,99863.56
2018-06-20T21:16:02.384Z,99863.37
2018-06-20T21:18:30.549Z,99857.38
2018-06-20T21:20:58.641Z,99859.38
2018-06-20T21:23:27.050Z,99860.42
2018-06-20T21:25:55.398Z,99863.56
2018-06-20T21:28:23.778Z,99861.70
2018-06-20T21:30:52.158Z,99859.96
2018-06-20T21:33:20.541Z,99852.39
2018-06-20T21:35:48.918Z,99849.98
2018-06-20T21:38:17.189Z,99860.34
2018-06-20T21:40:45.553Z,99859.30
2018-06-20T21:43:13.873Z,99860.50
2018-06-20T21:45:42.113Z,99861.27
2018-06-20T21:48:10.502Z,99864.63
2018-06-20T21:50:38.862Z,99861.75
2018-06-20T21:53:07.244Z,99863.87
2018-06-20T21:55:35.633Z,99862.33
2018-06-20T21:58:04.113Z,99864.72
2018-06-20T22:00:32.698Z,99859.23
2018-06-20T22:03:01.082Z,99862.94
2018-06-20T22:05:29.591Z,99863.67
2018-06-20T22:07:57.832Z,99861.27
2018-06-20T22:10:26.352Z,99863.34
2018-06-20T22:12:54.807Z,99867.00
2018-06-20T22:15:23.170Z,99863.31
2018-06-20T22:17:51.676Z,99854.28
2018-06-20T22:20:20.038Z,99859.20
2018-06-20T22:22:48.530Z,99863.50
2018-06-20T22:25:16.894Z,99862.31
2018-06-20T22:27:45.419Z,99861.81
2018-06-20T22:30:13.645Z,99863.53
2018-06-20T22:32:42.052Z,99865.07
2018-06-20T22:35:10.754Z,99865.42
2018-06-20T22:37:39.209Z,99868.97
2018-06-20T22:40:07.823Z,99868.36
2018-06-20T22:42:36.377Z,99863.80
2018-06-20T22:45:04.966Z,99868.36
2018-06-20T22:47:33.238Z,99868.36
2018-06-20T22:50:01.571Z,99857.13
2018-06-20T22:52:29.986Z,99850.44
2018-06-20T22:54:58.277Z,99850.66
2018-06-20T22:57:26.857Z,99846.73
2018-06-20T22:59:56.067Z,99854.77
2018-06-20T23:02:24.588Z,99840.47
2018-06-20T23:04:53.132Z,99844.55
2018-06-20T23:07:21.710Z,99846.24
2018-06-20T23:09:50.152Z,99849.28
2018-06-20T23:12:18.578Z,99841.03
2018-06-20T23:14:47.660Z,99841.64
2018-06-20T23:17:16.193Z,99841.30
2018-06-20T23:19:44.529Z,99843.78
2018-06-20T23:22:13.007Z,99835.91
2018-06-20T23:24:41.642Z,99831.16
2018-06-20T23:27:10.107Z,99833.70
2018-06-20T23:29:38.564Z,99833.98
2018-06-20T23:32:06.977Z,99830.67
2018-06-20T23:34:36.122Z,99825.80
2018-06-20T23:37:04.501Z,99825.28
2018-06-20T23:39:33.810Z,99828.14
2018-06-20T23:42:02.385Z,99824.30
2018-06-20T23:44:30.786Z,99826.95
2018-06-20T23:46:59.382Z,99824.98
2018-06-20T23:49:27.932Z,99829.41
2018-06-20T23:51:56.314Z,99829.15
2018-06-20T23:54:25.894Z,99827.03
2018-06-20T23:56:54.434Z,99825.66
2018-06-20T23:59:22.694Z,99827.33
